createdAt,value
2019-05-03T00:01:02.376Z,77.45
2019-05-03T00:04:07.024Z,77.70
2019-05-03T00:07:11.838Z,78.48
2019-05-03T00:10:17.760Z,78.76
2019-05-03T00:13:22.202Z,78.45
2019-05-03T00:16:33.901Z,79.00
2019-05-03T00:19:38.439Z,79.53
2019-05-03T00:22:42.866Z,79.69
2019-05-03T00:25:47.660Z,78.90
2019-05-03T00:28:52.186Z,79.26
2019-05-03T00:31:56.621Z,79.99
2019-05-03T00:35:08.691Z,79.77
2019-05-03T00:38:15.082Z,80.30
2019-05-03T00:41:21.462Z,79.32
2019-05-03T00:44:25.702Z,80.10
2019-05-03T00:47:30.156Z,79.36
2019-05-03T00:50:34.609Z,78.83
2019-05-03T00:53:39.348Z,79.28
2019-05-03T00:56:44.519Z,79.43
2019-05-03T00:59:49.023Z,79.91
2019-05-03T01:02:53.741Z,79.86
2019-05-03T01:05:58.196Z,80.64
2019-05-03T01:09:04.749Z,80.40
2019-05-03T01:12:09.472Z,79.91
2019-05-03T01:15:18.291Z,79.99
2019-05-03T01:18:23.234Z,79.71
2019-05-03T01:21:27.689Z,79.90
2019-05-03T01:24:32.393Z,80.02
2019-05-03T01:27:36.869Z,80.03
2019-05-03T01:30:42.522Z,80.21
2019-05-03T01:33:47.067Z,78.85
2019-05-03T01:36:51.991Z,78.53
2019-05-03T01:39:56.459Z,79.33
2019-05-03T01:43:02.213Z,77.78
2019-05-03T01:46:06.935Z,77.90
2019-05-03T01:49:16.157Z,78.90
2019-05-03T01:52:25.203Z,79.78
2019-05-03T01:55:47.458Z,79.37
2019-05-03T01:58:52.376Z,79.31
2019-05-03T02:01:58.853Z,79.27
2019-05-03T02:05:14.016Z,79.43
2019-05-03T02:08:18.466Z,78.68
2019-05-03T02:11:22.905Z,78.29
2019-05-03T02:14:27.607Z,78.30
2019-05-03T02:17:32.340Z,79.01
2019-05-03T02:20:36.788Z,79.25
2019-05-03T02:23:42.516Z,79.60
2019-05-03T02:26:47.121Z,79.03
2019-05-03T02:29:52.388Z,78.99
2019-05-03T02:32:57.326Z,79.51
2019-05-03T02:36:03.541Z,79.11
2019-05-03T02:39:13.594Z,78.63
2019-05-03T02:42:17.570Z,78.07
2019-05-03T02:45:25.867Z,78.88
2019-05-03T02:48:31.459Z,78.70
2019-05-03T02:51:36.160Z,78.16
2019-05-03T02:54:41.095Z,79.09
2019-05-03T02:57:46.536Z,79.03
2019-05-03T03:01:01.696Z,78.85
2019-05-03T03:04:06.494Z,78.87
2019-05-03T03:07:15.035Z,79.11
2019-05-03T03:10:18.922Z,79.22
2019-05-03T03:13:25.593Z,79.46
2019-05-03T03:16:31.923Z,79.43
2019-05-03T03:19:38.679Z,79.29
2019-05-03T03:22:45.639Z,79.02
2019-05-03T03:25:55.906Z,78.68
2019-05-03T03:29:06.610Z,78.62
2019-05-03T03:32:29.279Z,79.00
2019-05-03T03:35:38.228Z,79.44
2019-05-03T03:38:40.935Z,79.18
2019-05-03T03:41:48.176Z,78.78
2019-05-03T03:44:56.310Z,79.79
2019-05-03T03:48:05.084Z,80.15
2019-05-03T03:51:11.002Z,80.39
2019-05-03T03:54:19.178Z,81.09
2019-05-03T03:57:26.832Z,80.57
2019-05-03T04:00:31.855Z,80.35
2019-05-03T04:03:36.411Z,79.83
2019-05-03T04:06:40.849Z,80.08
2019-05-03T04:09:45.770Z,80.33
2019-05-03T04:12:50.837Z,79.64
2019-05-03T04:15:56.938Z,80.16
2019-05-03T04:19:11.816Z,80.15
2019-05-03T04:22:16.633Z,81.17
2019-05-03T04:25:21.642Z,80.71
2019-05-03T04:28:26.422Z,79.98
2019-05-03T04:31:30.871Z,79.86
2019-05-03T04:34:36.055Z,80.59
2019-05-03T04:37:40.551Z,79.62
2019-05-03T04:40:45.464Z,80.39
2019-05-03T04:43:50.333Z,80.32
2019-05-03T04:46:58.243Z,80.19
2019-05-03T04:50:01.237Z,79.55
2019-05-03T04:53:06.061Z,79.68
2019-05-03T04:56:10.782Z,80.47
2019-05-03T04:59:16.235Z,79.35
2019-05-03T05:02:21.032Z,78.86
2019-05-03T05:05:26.349Z,78.78
2019-05-03T05:08:31.453Z,79.05
2019-05-03T05:11:35.903Z,79.93
2019-05-03T05:14:40.820Z,80.04
2019-05-03T05:17:48.123Z,79.23
2019-05-03T05:21:05.622Z,79.02
2019-05-03T05:24:10.360Z,79.33
2019-05-03T05:27:16.729Z,79.20
2019-05-03T05:30:21.185Z,77.39
2019-05-03T05:33:25.629Z,78.17
2019-05-03T05:36:30.090Z,77.66
2019-05-03T05:39:35.577Z,76.59
2019-05-03T05:42:40.587Z,76.88
2019-05-03T05:45:45.062Z,76.54
2019-05-03T05:48:51.252Z,76.12
2019-05-03T05:51:55.701Z,74.94
2019-05-03T05:55:18.259Z,75.77
2019-05-03T05:58:37.012Z,73.51
2019-05-03T06:01:43.105Z,74.58
2019-05-03T06:04:47.808Z,74.47
2019-05-03T06:07:59.601Z,75.72
2019-05-03T06:11:05.696Z,76.52
2019-05-03T06:14:11.776Z,76.47
2019-05-03T06:17:24.541Z,75.82
2019-05-03T06:20:46.899Z,75.37
2019-05-03T06:23:53.255Z,75.72
2019-05-03T06:27:05.174Z,77.07
2019-05-03T06:30:12.535Z,76.90
2019-05-03T06:33:16.995Z,76.18
2019-05-03T06:36:21.701Z,74.97
2019-05-03T06:39:26.431Z,75.41
2019-05-03T06:42:30.885Z,76.30
2019-05-03T06:45:35.592Z,77.47
2019-05-03T06:48:40.317Z,76.13
2019-05-03T06:51:49.453Z,75.56
2019-05-03T06:54:51.520Z,76.13
2019-05-03T06:57:56.250Z,76.96
2019-05-03T07:01:04.543Z,74.16
2019-05-03T07:04:10.155Z,76.07
2019-05-03T07:07:31.503Z,75.55
2019-05-03T07:10:37.604Z,75.84
2019-05-03T07:13:44.842Z,73.76
2019-05-03T07:16:48.807Z,73.95
2019-05-03T07:19:54.692Z,74.90
2019-05-03T07:22:59.603Z,74.12
2019-05-03T07:26:05.343Z,74.92
2019-05-03T07:29:10.391Z,75.92
2019-05-03T07:32:15.595Z,74.90
2019-05-03T07:35:20.566Z,75.40
2019-05-03T07:38:25.508Z,76.81
2019-05-03T07:41:30.027Z,76.36
2019-05-03T07:44:34.980Z,75.11
2019-05-03T07:47:39.695Z,75.17
2019-05-03T07:50:44.760Z,75.89
2019-05-03T07:53:49.371Z,76.52
2019-05-03T07:56:55.736Z,76.22
2019-05-03T08:00:00.191Z,75.55
2019-05-03T08:03:05.300Z,75.81
2019-05-03T08:06:10.023Z,75.87
2019-05-03T08:09:15.325Z,75.53
2019-05-03T08:12:20.308Z,72.91
2019-05-03T08:15:24.756Z,73.77
2019-05-03T08:18:29.563Z,71.89
2019-05-03T08:21:38.164Z,70.95
2019-05-03T08:24:40.199Z,70.72
2019-05-03T08:27:45.191Z,69.68
2019-05-03T08:31:08.050Z,67.85
2019-05-03T08:34:15.285Z,67.89
2019-05-03T08:37:21.505Z,67.91
2019-05-03T08:40:27.595Z,65.79
2019-05-03T08:43:32.038Z,66.07
2019-05-03T08:46:36.486Z,66.13
2019-05-03T08:49:41.241Z,67.17
2019-05-03T08:52:45.685Z,67.36
2019-05-03T08:55:50.210Z,65.31
2019-05-03T08:58:55.475Z,63.46
2019-05-03T09:02:03.481Z,64.22
2019-05-03T09:05:08.281Z,61.10
2019-05-03T09:08:13.017Z,59.99
2019-05-03T09:11:30.745Z,59.48
2019-05-03T09:14:24.550Z,59.27
2019-05-03T09:17:30.547Z,59.33
2019-05-03T09:20:35.679Z,60.29
2019-05-03T09:23:40.234Z,60.54
2019-05-03T09:26:45.005Z,61.26
2019-05-03T09:29:49.800Z,61.99
2019-05-03T09:32:55.701Z,60.01
2019-05-03T09:36:00.272Z,54.02
2019-05-03T09:39:07.568Z,56.88
2019-05-03T09:42:12.316Z,54.10
2019-05-03T09:45:17.246Z,53.47
2019-05-03T09:48:21.715Z,54.33
2019-05-03T09:51:26.420Z,54.24
2019-05-03T09:54:34.723Z,54.82
2019-05-03T09:57:39.272Z,54.13
2019-05-03T10:00:44.615Z,54.16
2019-05-03T10:03:49.117Z,55.26
2019-05-03T10:06:54.835Z,57.05
2019-05-03T10:09:59.312Z,56.94
2019-05-03T10:13:13.199Z,57.55
2019-05-03T10:16:10.780Z,56.69
2019-05-03T10:19:16.253Z,54.82
2019-05-03T10:22:28.155Z,52.70
2019-05-03T10:25:32.584Z,51.88
2019-05-03T10:28:37.033Z,52.10
2019-05-03T10:31:55.324Z,54.14
2019-05-03T10:35:05.674Z,50.37
2019-05-03T10:38:10.001Z,51.62
2019-05-03T10:41:17.423Z,52.54
2019-05-03T10:44:24.403Z,53.01
2019-05-03T10:47:28.628Z,50.46
2019-05-03T10:50:34.779Z,50.61
2019-05-03T10:53:41.189Z,52.42
2019-05-03T10:56:49.675Z,54.14
2019-05-03T10:59:55.530Z,54.91
2019-05-03T11:03:01.783Z,52.62
2019-05-03T11:06:06.290Z,53.06
2019-05-03T11:09:11.055Z,53.52
2019-05-03T11:12:15.872Z,50.59
2019-05-03T11:15:20.624Z,46.70
2019-05-03T11:18:25.323Z,47.55
2019-05-03T11:21:31.145Z,49.38
2019-05-03T11:24:35.709Z,49.73
2019-05-03T11:27:42.105Z,50.13
2019-05-03T11:30:56.454Z,49.81
2019-05-03T11:33:55.321Z,50.67
2019-05-03T11:37:08.106Z,51.77
2019-05-03T11:40:12.605Z,50.79
2019-05-03T11:43:18.695Z,49.22
2019-05-03T11:46:24.808Z,48.21
2019-05-03T11:49:29.422Z,48.12
2019-05-03T11:52:35.571Z,45.35
2019-05-03T11:55:40.461Z,47.53
2019-05-03T11:58:45.698Z,47.28
2019-05-03T12:01:55.306Z,47.47
2019-05-03T12:05:02.127Z,49.42
2019-05-03T12:08:06.833Z,49.81
2019-05-03T12:11:11.302Z,44.98
2019-05-03T12:14:16.003Z,44.20
2019-05-03T12:17:28.288Z,43.95
2019-05-03T12:20:29.998Z,40.20
2019-05-03T12:23:36.833Z,41.70
2019-05-03T12:26:44.650Z,42.77
2019-05-03T12:29:47.751Z,42.07
2019-05-03T12:32:54.528Z,43.77
2019-05-03T12:35:58.944Z,44.02
2019-05-03T12:39:05.636Z,44.06
2019-05-03T12:42:11.175Z,45.68
2019-05-03T12:45:16.007Z,47.35
2019-05-03T12:48:20.735Z,48.88
2019-05-03T12:51:25.643Z,46.66
2019-05-03T12:54:30.607Z,45.49
2019-05-03T12:57:35.045Z,45.34
2019-05-03T13:00:41.126Z,45.35
2019-05-03T13:03:47.570Z,45.44
2019-05-03T13:06:56.295Z,45.42
2019-05-03T13:10:01.023Z,44.76
2019-05-03T13:13:05.753Z,46.09
2019-05-03T13:16:11.856Z,44.65
2019-05-03T13:19:16.297Z,42.49
2019-05-03T13:22:20.741Z,39.34
2019-05-03T13:25:25.920Z,39.60
2019-05-03T13:28:30.837Z,43.39
2019-05-03T13:31:35.288Z,40.13
2019-05-03T13:34:41.392Z,41.23
2019-05-03T13:37:46.977Z,38.01
2019-05-03T13:40:51.710Z,40.66
2019-05-03T13:43:56.143Z,40.19
2019-05-03T13:47:00.590Z,41.39
2019-05-03T13:50:07.572Z,42.22
2019-05-03T13:53:12.371Z,44.22
2019-05-03T13:56:16.822Z,45.82
2019-05-03T13:59:22.149Z,44.07
2019-05-03T14:02:26.682Z,42.31
2019-05-03T14:05:31.126Z,43.59
2019-05-03T14:08:35.640Z,42.95
2019-05-03T14:11:40.076Z,41.96
2019-05-03T14:14:56.014Z,42.08
2019-05-03T14:17:59.823Z,42.61
2019-05-03T14:21:11.415Z,40.98
2019-05-03T14:24:16.170Z,41.87
2019-05-03T14:27:20.751Z,39.78
2019-05-03T14:30:25.533Z,42.40
2019-05-03T14:33:29.959Z,39.26
2019-05-03T14:36:35.848Z,39.31
2019-05-03T14:39:40.529Z,40.87
2019-05-03T14:42:44.974Z,42.82
2019-05-03T14:45:49.427Z,41.37
2019-05-03T14:48:54.954Z,42.34
2019-05-03T14:51:59.489Z,41.95
2019-05-03T14:55:19.029Z,42.60
2019-05-03T14:58:25.870Z,43.78
2019-05-03T15:01:32.181Z,44.07
2019-05-03T15:04:36.636Z,44.66
2019-05-03T15:07:41.085Z,44.56
2019-05-03T15:10:45.782Z,45.41
2019-05-03T15:13:50.360Z,46.72
2019-05-03T15:16:55.765Z,47.33
2019-05-03T15:20:00.674Z,47.87
2019-05-03T15:23:05.685Z,46.65
2019-05-03T15:26:10.146Z,47.97
2019-05-03T15:29:15.597Z,46.23
2019-05-03T15:32:20.519Z,46.68
2019-05-03T15:35:25.860Z,45.20
2019-05-03T15:38:30.480Z,46.15
2019-05-03T15:41:36.298Z,44.60
2019-05-03T15:44:58.688Z,46.14
2019-05-03T15:48:07.497Z,46.08
2019-05-03T15:51:12.270Z,46.21
2019-05-03T15:54:16.699Z,46.35
2019-05-03T15:57:21.140Z,45.74
2019-05-03T16:00:25.935Z,45.24
2019-05-03T16:03:30.663Z,47.31
2019-05-03T16:06:35.412Z,46.48
2019-05-03T16:09:39.844Z,47.05
2019-05-03T16:12:44.964Z,46.17
2019-05-03T16:15:49.894Z,47.24
2019-05-03T16:18:54.338Z,47.04
2019-05-03T16:21:58.778Z,47.35
2019-05-03T16:25:04.951Z,48.00
2019-05-03T16:28:11.084Z,49.00
2019-05-03T16:31:17.672Z,51.20
2019-05-03T16:34:22.190Z,52.64
2019-05-03T16:37:26.898Z,53.06
2019-05-03T16:40:31.337Z,53.40
2019-05-03T16:43:35.785Z,54.30
2019-05-03T16:46:40.227Z,54.39
2019-05-03T16:49:44.759Z,55.38
2019-05-03T16:52:49.193Z,55.43
2019-05-03T16:55:54.805Z,55.70
2019-05-03T16:58:59.601Z,55.31
2019-05-03T17:02:05.794Z,54.15
2019-05-03T17:05:14.272Z,54.47
2019-05-03T17:08:20.352Z,53.29
2019-05-03T17:11:26.057Z,51.19
2019-05-03T17:14:30.505Z,52.06
2019-05-03T17:17:34.951Z,51.52
2019-05-03T17:20:39.693Z,50.45
2019-05-03T17:23:44.648Z,50.31
2019-05-03T17:26:49.448Z,49.53
2019-05-03T17:29:55.262Z,50.67
2019-05-03T17:32:59.888Z,51.50
2019-05-03T17:36:05.124Z,51.34
2019-05-03T17:39:11.700Z,52.64
2019-05-03T17:42:34.569Z,53.38
2019-05-03T17:45:49.368Z,52.87
2019-05-03T17:48:54.685Z,52.57
2019-05-03T17:51:59.088Z,53.20
2019-05-03T17:55:15.287Z,54.28
2019-05-03T17:58:37.822Z,54.84
2019-05-03T18:01:52.555Z,54.49
2019-05-03T18:05:15.724Z,55.46
2019-05-03T18:08:25.025Z,58.67
2019-05-03T18:11:31.200Z,59.91
2019-05-03T18:14:35.659Z,59.17
2019-05-03T18:17:40.092Z,58.66
2019-05-03T18:20:45.062Z,60.41
2019-05-03T18:23:49.940Z,62.47
2019-05-03T18:26:54.542Z,62.93
2019-05-03T18:29:58.993Z,63.14
2019-05-03T18:33:04.837Z,63.33
2019-05-03T18:36:09.781Z,63.99
2019-05-03T18:39:14.839Z,64.17
2019-05-03T18:42:21.294Z,64.17
2019-05-03T18:45:28.491Z,65.08
2019-05-03T18:48:33.314Z,65.75
2019-05-03T18:51:38.046Z,66.20
2019-05-03T18:54:44.375Z,66.72
2019-05-03T18:57:48.652Z,67.00
2019-05-03T19:00:54.868Z,67.94
2019-05-03T19:04:01.471Z,68.47
2019-05-03T19:07:07.557Z,68.58
2019-05-03T19:10:17.098Z,68.28
2019-05-03T19:13:23.170Z,68.08
2019-05-03T19:16:30.226Z,67.76
2019-05-03T19:19:36.317Z,67.18
2019-05-03T19:22:41.025Z,68.23
2019-05-03T19:25:49.189Z,68.68
2019-05-03T19:28:51.698Z,68.61
2019-05-03T19:31:56.453Z,68.90
2019-05-03T19:35:00.891Z,68.71
2019-05-03T19:38:05.708Z,69.44
2019-05-03T19:41:10.178Z,68.96
2019-05-03T19:44:15.641Z,68.62
2019-05-03T19:47:20.160Z,69.23
2019-05-03T19:50:27.132Z,69.03
2019-05-03T19:53:33.718Z,68.54
2019-05-03T19:56:38.166Z,68.95
2019-05-03T19:59:44.555Z,69.31
2019-05-03T20:02:49.077Z,69.71
2019-05-03T20:05:55.166Z,69.48
2019-05-03T20:09:14.700Z,68.95
2019-05-03T20:12:19.647Z,70.25
2019-05-03T20:15:24.410Z,70.74
2019-05-03T20:18:29.116Z,70.83
2019-05-03T20:21:33.947Z,70.92
2019-05-03T20:24:38.677Z,71.19
2019-05-03T20:27:44.518Z,70.66
2019-05-03T20:30:49.128Z,70.61
2019-05-03T20:33:54.902Z,71.15
2019-05-03T20:36:59.750Z,71.53
2019-05-03T20:40:09.098Z,70.12
2019-05-03T20:43:27.336Z,69.56
2019-05-03T20:46:35.878Z,70.01
2019-05-03T20:49:40.589Z,70.14
2019-05-03T20:52:45.778Z,70.83
2019-05-03T20:55:50.287Z,70.69
2019-05-03T20:58:55.147Z,71.02
2019-05-03T21:01:59.917Z,70.74
2019-05-03T21:05:07.665Z,70.59
2019-05-03T21:08:12.118Z,70.78
2019-05-03T21:11:16.562Z,71.15
2019-05-03T21:14:20.998Z,71.49
2019-05-03T21:17:36.050Z,71.09
2019-05-03T21:20:45.130Z,70.74
2019-05-03T21:23:57.105Z,71.90
2019-05-03T21:27:01.825Z,71.89
2019-05-03T21:30:09.638Z,71.74
2019-05-03T21:33:15.779Z,72.01
2019-05-03T21:36:20.630Z,72.10
2019-05-03T21:39:25.068Z,72.43
2019-05-03T21:42:29.515Z,72.70
2019-05-03T21:45:35.591Z,72.74
2019-05-03T21:48:57.988Z,72.70
2019-05-03T21:52:04.482Z,72.75
2019-05-03T21:55:09.390Z,72.74
2019-05-03T21:58:16.125Z,72.25
2019-05-03T22:01:20.697Z,71.88
2019-05-03T22:04:25.146Z,69.59
2019-05-03T22:07:29.590Z,68.63
2019-05-03T22:10:34.621Z,69.74
2019-05-03T22:13:40.220Z,68.77
2019-05-03T22:16:49.309Z,68.89
2019-05-03T22:19:55.663Z,67.33
2019-05-03T22:23:01.999Z,65.68
2019-05-03T22:26:07.857Z,65.22
2019-05-03T22:29:14.423Z,65.25
2019-05-03T22:32:18.910Z,63.19
2019-05-03T22:35:25.095Z,63.90
2019-05-03T22:38:29.957Z,63.88
2019-05-03T22:41:35.623Z,64.02
2019-05-03T22:44:40.068Z,63.75
2019-05-03T22:47:44.789Z,63.38
2019-05-03T22:50:50.722Z,62.51
2019-05-03T22:53:55.556Z,62.17
2019-05-03T22:57:00.004Z,62.22
2019-05-03T23:00:09.604Z,61.18
2019-05-03T23:03:16.004Z,61.28
2019-05-03T23:06:22.774Z,61.75
2019-05-03T23:09:28.529Z,62.19
2019-05-03T23:12:34.863Z,61.66
2019-05-03T23:15:39.426Z,62.31
2019-05-03T23:18:44.396Z,62.93
2019-05-03T23:21:59.939Z,63.97
2019-05-03T23:25:06.029Z,64.54
2019-05-03T23:28:10.474Z,65.55
2019-05-03T23:31:15.986Z,65.88
2019-05-03T23:34:20.711Z,66.86
2019-05-03T23:37:25.140Z,66.58
2019-05-03T23:40:29.870Z,66.71
2019-05-03T23:43:35.832Z,67.10
2019-05-03T23:46:42.405Z,66.72
2019-05-03T23:49:46.849Z,67.78
2019-05-03T23:52:51.283Z,66.00
2019-05-03T23:56:04.494Z,65.57
2019-05-03T23:59:09.073Z,65.10
